Time;durP1;ratioP1;P1;durP2;ratioP2;P2;SDS_P1;SDS_P2;PMS_P1;PMS_P2;Temp;Humidity;BMP_temperature;BMP_pressure;BME280_temperature;BME280_humidity;BME280_pressure;Samples;Min_cycle;Max_cycle;Signal;HPM_P1;HPM_P2
2020/12/28 00:00:35;;;;;;;4.30;3.90;;;4.30;99.90;;;;;;5019817;28;20637;-68
2020/12/28 00:03:19;;;;;;;4.30;3.90;;;4.30;99.90;;;;;;5024214;28;20711;-69
2020/12/28 00:06:04;;;;;;;4.20;3.70;;;4.30;99.90;;;;;;5033963;28;20757;-68
2020/12/28 00:08:48;;;;;;;4.60;4.20;;;4.30;99.90;;;;;;5034361;28;20648;-69
2020/12/28 00:11:32;;;;;;;4.20;3.90;;;4.30;99.90;;;;;;5027200;28;20746;-69
2020/12/28 00:14:17;;;;;;;4.80;4.00;;;4.40;99.90;;;;;;5028277;28;20593;-69
2020/12/28 00:17:01;;;;;;;4.30;4.00;;;4.50;99.90;;;;;;5027106;28;20598;-68
2020/12/28 00:19:46;;;;;;;6.50;4.37;;;4.50;99.90;;;;;;5031628;28;20676;-68
2020/12/28 00:22:30;;;;;;;4.10;3.80;;;4.50;99.90;;;;;;5022718;28;20791;-68
2020/12/28 00:25:20;;;;;;;4.00;3.60;;;4.50;99.90;;;;;;5035052;28;20676;-69
2020/12/28 00:28:04;;;;;;;3.73;3.40;;;4.50;99.90;;;;;;5061237;28;20649;-68
2020/12/28 00:30:50;;;;;;;4.10;3.70;;;4.60;99.90;;;;;;5030034;28;20616;-68
2020/12/28 00:33:35;;;;;;;3.67;3.37;;;4.60;99.90;;;;;;5027326;28;21563;-69
2020/12/28 00:36:20;;;;;;;4.40;4.00;;;4.70;99.90;;;;;;5029304;28;20968;-69
2020/12/28 00:39:05;;;;;;;3.57;3.33;;;4.60;99.90;;;;;;5032781;28;20657;-69
2020/12/28 00:41:50;;;;;;;3.37;3.07;;;4.60;99.90;;;;;;5021988;28;20681;-69
2020/12/28 00:44:38;;;;;;;4.00;3.40;;;4.50;99.90;;;;;;5023033;28;20789;-69
2020/12/28 00:47:23;;;;;;;3.33;3.03;;;4.60;99.90;;;;;;5011528;28;21049;-69
2020/12/28 00:50:08;;;;;;;3.80;3.20;;;4.70;99.90;;;;;;5026891;28;21292;-69
2020/12/28 00:52:52;;;;;;;3.90;3.20;;;4.80;99.90;;;;;;5024692;28;21240;-69
2020/12/28 00:55:37;;;;;;;3.13;2.90;;;4.80;99.90;;;;;;5020496;28;20609;-69
2020/12/28 00:58:21;;;;;;;3.20;3.00;;;4.80;99.90;;;;;;5028347;28;20630;-69
2020/12/28 01:01:06;;;;;;;3.80;3.50;;;4.80;99.90;;;;;;5024340;28;20998;-69
2020/12/28 01:03:51;;;;;;;3.53;3.07;;;4.80;99.90;;;;;;5027307;28;20621;-69
2020/12/28 01:06:42;;;;;;;3.03;2.80;;;4.70;99.90;;;;;;5023207;28;20586;-69
2020/12/28 01:09:26;;;;;;;3.13;2.93;;;4.70;99.90;;;;;;5024180;28;21118;-69
2020/12/28 01:12:11;;;;;;;3.10;2.80;;;4.70;99.90;;;;;;5025798;28;20634;-69
2020/12/28 01:14:56;;;;;;;3.27;2.97;;;4.80;99.90;;;;;;5017300;28;20633;-68
2020/12/28 01:17:41;;;;;;;3.40;3.10;;;4.80;99.90;;;;;;5030826;28;20753;-69
2020/12/28 01:20:25;;;;;;;2.87;2.67;;;4.90;99.90;;;;;;5030635;28;20661;-69
2020/12/28 01:23:10;;;;;;;3.37;2.93;;;4.80;99.90;;;;;;5026053;28;20832;-69
2020/12/28 01:25:55;;;;;;;3.50;3.20;;;4.80;99.90;;;;;;5032801;28;20644;-69
2020/12/28 01:28:39;;;;;;;3.70;2.97;;;4.80;99.90;;;;;;5030093;28;20714;-69
2020/12/28 01:31:24;;;;;;;3.10;2.80;;;4.90;99.90;;;;;;5022973;28;20775;-68
2020/12/28 01:34:08;;;;;;;3.40;3.10;;;4.90;99.90;;;;;;5030380;28;20617;-69
2020/12/28 01:36:53;;;;;;;3.33;3.03;;;4.90;99.90;;;;;;5029964;28;20613;-68
2020/12/28 01:39:39;;;;;;;3.50;3.20;;;4.90;99.90;;;;;;5031777;28;20735;-69
2020/12/28 01:42:24;;;;;;;2.67;2.47;;;4.90;99.90;;;;;;5018677;28;20657;-69
2020/12/28 01:45:08;;;;;;;3.13;2.93;;;5.00;99.90;;;;;;5026321;28;20640;-69
2020/12/28 01:47:53;;;;;;;2.80;2.60;;;5.00;99.90;;;;;;5018066;28;20589;-69
2020/12/28 01:50:38;;;;;;;2.90;2.63;;;4.90;99.90;;;;;;5021940;28;20694;-68
2020/12/28 01:53:23;;;;;;;2.67;2.47;;;4.90;99.90;;;;;;5021047;28;21176;-69
2020/12/28 01:56:08;;;;;;;2.40;2.20;;;4.90;99.90;;;;;;5025219;28;20653;-68
2020/12/28 01:58:54;;;;;;;2.97;2.77;;;4.90;99.90;;;;;;5027809;28;20751;-69
2020/12/28 02:01:41;;;;;;;3.00;2.80;;;4.90;99.90;;;;;;5014337;28;20649;-68
2020/12/28 02:04:25;;;;;;;3.20;2.40;;;4.90;99.90;;;;;;5023235;28;20733;-69
2020/12/28 02:07:14;;;;;;;2.63;2.43;;;5.00;99.90;;;;;;5028007;28;20978;-69
2020/12/28 02:10:07;;;;;;;3.00;2.40;;;5.00;99.90;;;;;;5055152;28;20641;-69
2020/12/28 02:12:52;;;;;;;2.60;2.40;;;5.00;99.90;;;;;;5043835;28;20645;-69
2020/12/28 02:15:37;;;;;;;2.80;2.53;;;5.00;99.90;;;;;;5042171;28;20602;-69
2020/12/28 02:18:21;;;;;;;2.70;2.50;;;5.00;99.90;;;;;;5035804;28;20645;-69
2020/12/28 02:21:06;;;;;;;2.63;2.43;;;5.00;99.90;;;;;;5027861;28;20640;-71
2020/12/28 02:23:50;;;;;;;2.50;2.30;;;5.00;99.90;;;;;;5017663;28;20661;-69
2020/12/28 02:26:35;;;;;;;2.70;2.50;;;5.00;99.90;;;;;;5028966;28;20590;-69
2020/12/28 02:29:19;;;;;;;2.90;2.63;;;5.00;99.90;;;;;;5025375;28;20657;-68
2020/12/28 02:32:03;;;;;;;2.60;2.40;;;5.00;99.90;;;;;;5028111;28;20625;-69
2020/12/28 02:34:48;;;;;;;2.57;2.37;;;5.10;99.90;;;;;;5030528;28;20608;-69
2020/12/28 02:37:32;;;;;;;2.50;2.30;;;5.00;99.90;;;;;;5024676;28;21143;-69
2020/12/28 02:40:17;;;;;;;3.07;2.70;;;5.00;99.90;;;;;;5015279;28;21251;-69
2020/12/28 02:43:01;;;;;;;2.77;2.57;;;5.10;99.90;;;;;;5027763;28;20641;-68
2020/12/28 02:45:46;;;;;;;2.90;2.70;;;5.00;99.90;;;;;;5033991;28;20753;-69
2020/12/28 02:48:31;;;;;;;2.73;2.53;;;5.00;99.90;;;;;;5024660;28;20661;-68
2020/12/28 02:51:15;;;;;;;2.50;2.30;;;5.00;99.90;;;;;;5027058;28;20650;-69
2020/12/28 02:54:00;;;;;;;2.70;2.50;;;5.00;99.90;;;;;;5018473;28;20634;-69
2020/12/28 02:56:44;;;;;;;2.57;2.37;;;5.00;99.90;;;;;;5036098;28;20780;-69
2020/12/28 02:59:29;;;;;;;2.57;2.37;;;5.10;99.90;;;;;;5031263;28;20778;-69
2020/12/28 03:02:13;;;;;;;2.93;2.63;;;5.20;99.90;;;;;;5026605;28;20709;-68
2020/12/28 03:04:57;;;;;;;2.50;2.30;;;5.10;99.90;;;;;;5029658;28;20768;-69
2020/12/28 03:07:44;;;;;;;2.47;2.27;;;5.10;99.90;;;;;;5027204;28;20679;-69
2020/12/28 03:10:29;;;;;;;3.10;2.90;;;5.10;99.90;;;;;;5027288;28;20748;-68
2020/12/28 03:13:16;;;;;;;3.10;2.80;;;5.10;99.90;;;;;;5048318;28;20605;-68
2020/12/28 03:16:03;;;;;;;3.10;2.90;;;5.20;99.90;;;;;;5060467;28;20601;-69
2020/12/28 03:18:47;;;;;;;2.30;2.10;;;5.20;99.90;;;;;;5031879;28;21238;-68
2020/12/28 03:21:32;;;;;;;2.87;2.67;;;5.20;99.90;;;;;;5027985;28;20855;-68
2020/12/28 03:24:16;;;;;;;2.60;2.40;;;5.20;99.90;;;;;;5036413;28;20680;-69
2020/12/28 03:27:03;;;;;;;2.33;2.13;;;5.30;99.90;;;;;;5023602;28;20613;-69
2020/12/28 03:29:48;;;;;;;2.87;2.67;;;5.30;99.90;;;;;;5034446;28;21127;-69
2020/12/28 03:32:33;;;;;;;2.33;2.20;;;5.30;99.90;;;;;;5021452;28;20665;-69
2020/12/28 03:35:17;;;;;;;3.80;2.60;;;5.30;99.90;;;;;;5033470;28;21256;-69
2020/12/28 03:38:02;;;;;;;2.63;2.43;;;5.30;99.90;;;;;;5024460;28;20581;-69
2020/12/28 03:40:46;;;;;;;2.50;2.30;;;5.20;99.90;;;;;;5030872;28;20723;-69
2020/12/28 03:43:31;;;;;;;2.50;2.30;;;5.20;99.90;;;;;;5029817;28;20726;-68
2020/12/28 03:46:15;;;;;;;2.70;2.50;;;5.20;99.90;;;;;;5041024;28;20740;-68
2020/12/28 03:49:00;;;;;;;2.87;2.67;;;5.20;99.90;;;;;;5025087;28;20645;-68
2020/12/28 03:51:45;;;;;;;2.50;2.30;;;5.20;99.90;;;;;;5027244;28;21024;-69
2020/12/28 03:54:29;;;;;;;3.90;2.50;;;5.20;99.90;;;;;;5028669;28;20589;-69
2020/12/28 03:57:14;;;;;;;2.70;2.50;;;5.20;99.90;;;;;;5025605;28;20614;-69
2020/12/28 03:59:58;;;;;;;3.23;2.50;;;5.20;99.90;;;;;;5028448;28;20652;-69
2020/12/28 04:02:43;;;;;;;4.60;2.60;;;5.20;99.90;;;;;;5030228;28;20707;-69
2020/12/28 04:05:27;;;;;;;3.17;2.80;;;5.20;99.90;;;;;;5029464;28;20633;-69
2020/12/28 04:08:11;;;;;;;2.37;2.20;;;5.30;99.90;;;;;;5032926;28;20691;-69
2020/12/28 04:10:57;;;;;;;3.10;2.80;;;5.30;99.90;;;;;;5030643;28;20640;-69
2020/12/28 04:13:41;;;;;;;2.50;2.30;;;5.30;99.90;;;;;;5028391;28;20618;-69
2020/12/28 04:16:26;;;;;;;2.70;2.50;;;5.30;99.90;;;;;;5032448;28;20586;-69
2020/12/28 04:19:10;;;;;;;2.80;2.60;;;5.30;99.90;;;;;;5033828;28;20828;-69
2020/12/28 04:21:54;;;;;;;2.70;2.47;;;5.30;99.90;;;;;;5017803;28;20653;-69
2020/12/28 04:24:39;;;;;;;2.70;2.50;;;5.40;99.90;;;;;;5044727;28;20652;-69
2020/12/28 04:27:24;;;;;;;3.00;2.70;;;5.40;99.90;;;;;;5025578;28;20988;-69
2020/12/28 04:30:09;;;;;;;2.73;2.53;;;5.40;99.90;;;;;;5031344;28;20665;-69
2020/12/28 04:32:54;;;;;;;3.03;2.83;;;5.30;99.90;;;;;;5029060;28;20732;-69
2020/12/28 04:35:38;;;;;;;3.20;2.30;;;5.40;99.90;;;;;;5026527;28;20621;-69
2020/12/28 04:38:23;;;;;;;2.70;2.50;;;5.40;99.90;;;;;;5026213;28;20704;-69
2020/12/28 04:41:10;;;;;;;3.20;2.90;;;5.40;99.90;;;;;;5023835;28;20648;-68
2020/12/28 04:43:54;;;;;;;3.27;2.97;;;5.30;99.90;;;;;;5040564;28;20601;-69
2020/12/28 04:46:40;;;;;;;2.90;2.70;;;5.30;99.90;;;;;;5023684;28;20618;-69
2020/12/28 04:49:25;;;;;;;3.37;3.10;;;5.30;99.90;;;;;;5022489;28;20716;-69
2020/12/28 04:52:10;;;;;;;3.40;3.10;;;5.30;99.90;;;;;;5026171;28;21007;-68
2020/12/28 04:54:55;;;;;;;2.90;2.70;;;5.30;99.90;;;;;;5020213;28;20599;-69
2020/12/28 04:57:39;;;;;;;3.10;2.83;;;5.30;99.90;;;;;;5022038;28;21022;-69
2020/12/28 05:00:24;;;;;;;3.03;2.73;;;5.40;99.90;;;;;;5029040;28;20653;-68
2020/12/28 05:03:09;;;;;;;2.70;2.50;;;5.30;99.90;;;;;;5044450;28;20680;-69
2020/12/28 05:05:54;;;;;;;2.67;2.40;;;5.40;99.90;;;;;;5029812;28;20744;-69
2020/12/28 05:08:45;;;;;;;2.60;2.40;;;5.30;99.90;;;;;;5030468;28;20661;-69
2020/12/28 05:11:31;;;;;;;2.73;2.53;;;5.40;99.90;;;;;;5024601;28;20697;-68
2020/12/28 05:14:16;;;;;;;2.63;2.43;;;5.30;99.90;;;;;;5030357;28;20689;-69
2020/12/28 05:17:05;;;;;;;2.53;2.33;;;5.30;99.90;;;;;;5019128;28;20603;-68
2020/12/28 05:19:59;;;;;;;2.60;2.40;;;5.40;99.90;;;;;;5022872;28;20662;-69
2020/12/28 05:22:45;;;;;;;2.50;2.23;;;5.40;99.90;;;;;;5022252;28;20711;-68
2020/12/28 05:25:30;;;;;;;2.60;2.40;;;5.50;99.90;;;;;;5039480;28;20645;-68
2020/12/28 05:28:16;;;;;;;2.23;2.13;;;5.40;99.90;;;;;;5013162;28;20606;-70
2020/12/28 05:31:02;;;;;;;2.27;2.17;;;5.40;99.90;;;;;;5021085;28;21275;-69
2020/12/28 05:33:47;;;;;;;2.40;2.20;;;5.40;99.90;;;;;;5021270;28;20594;-69
2020/12/28 05:36:32;;;;;;;2.30;2.10;;;5.40;99.90;;;;;;5029847;28;20618;-69
2020/12/28 05:39:20;;;;;;;2.23;1.87;;;5.40;99.90;;;;;;5019078;28;21316;-69
2020/12/28 05:42:08;;;;;;;2.57;1.60;;;5.40;99.90;;;;;;5021002;28;20986;-69
2020/12/28 05:44:54;;;;;;;2.30;2.10;;;5.50;99.90;;;;;;5028369;28;20713;-69
2020/12/28 05:47:43;;;;;;;2.10;1.97;;;5.50;99.90;;;;;;5015584;28;20630;-69
2020/12/28 05:50:31;;;;;;;2.10;2.00;;;5.40;99.90;;;;;;5031045;28;20779;-68
2020/12/28 05:53:16;;;;;;;2.00;1.90;;;5.40;99.90;;;;;;5022782;28;20623;-69
2020/12/28 05:56:02;;;;;;;2.00;1.90;;;5.40;99.90;;;;;;5024693;28;20621;-69
2020/12/28 05:58:47;;;;;;;2.03;1.93;;;5.40;99.90;;;;;;5063412;28;20652;-68
2020/12/28 06:01:37;;;;;;;1.87;1.67;;;5.40;99.90;;;;;;5040492;28;20637;-69
2020/12/28 06:04:22;;;;;;;1.80;1.70;;;5.50;99.90;;;;;;5024804;28;20634;-69
2020/12/28 06:07:07;;;;;;;1.80;1.70;;;5.50;99.90;;;;;;5033135;28;20613;-69
2020/12/28 06:09:57;;;;;;;2.30;2.10;;;5.50;99.90;;;;;;5023257;28;20634;-68
2020/12/28 06:12:42;;;;;;;1.83;1.73;;;5.60;99.90;;;;;;5026436;28;20704;-69
2020/12/28 06:15:27;;;;;;;2.17;1.97;;;5.50;99.90;;;;;;5032293;28;22009;-69
2020/12/28 06:18:18;;;;;;;1.97;1.87;;;5.50;99.90;;;;;;5016267;28;20590;-69
2020/12/28 06:21:12;;;;;;;2.27;2.10;;;5.60;99.90;;;;;;5023677;28;21470;-69
2020/12/28 06:23:57;;;;;;;2.50;2.30;;;5.60;99.90;;;;;;5032037;28;21171;-69
2020/12/28 06:26:41;;;;;;;1.93;1.83;;;5.50;99.90;;;;;;5020695;28;21318;-69
2020/12/28 06:29:26;;;;;;;1.73;1.63;;;5.50;99.90;;;;;;5030732;28;20656;-69
2020/12/28 06:32:16;;;;;;;2.27;2.17;;;5.50;99.90;;;;;;5021334;28;20633;-68
2020/12/28 06:35:03;;;;;;;2.43;1.70;;;5.40;99.90;;;;;;5031995;28;20980;-68
2020/12/28 06:37:52;;;;;;;2.30;2.10;;;5.30;99.90;;;;;;5023655;28;20589;-68
2020/12/28 06:40:44;;;;;;;1.97;1.87;;;5.20;99.90;;;;;;5046405;28;21246;-68
2020/12/28 06:43:39;;;;;;;2.40;2.20;;;5.20;99.90;;;;;;5026302;28;20593;-68
2020/12/28 06:46:27;;;;;;;2.50;2.30;;;5.20;99.90;;;;;;5036679;28;20966;-68
2020/12/28 06:49:11;;;;;;;2.23;1.80;;;5.20;99.90;;;;;;5027108;28;20805;-68
2020/12/28 06:52:01;;;;;;;2.30;2.10;;;5.20;99.90;;;;;;5029809;28;20642;-68
2020/12/28 06:54:46;;;;;;;2.70;2.43;;;5.10;99.90;;;;;;5037074;28;20589;-68
2020/12/28 06:57:30;;;;;;;2.40;2.20;;;5.10;99.90;;;;;;5032887;28;21204;-69
2020/12/28 07:00:24;;;;;;;3.43;2.50;;;5.10;99.90;;;;;;5034171;28;20644;-68
2020/12/28 07:03:16;;;;;;;2.40;2.20;;;5.10;99.90;;;;;;5012996;28;20650;-68
2020/12/28 07:06:05;;;;;;;2.90;2.60;;;5.10;99.90;;;;;;5002045;28;22073;-68
2020/12/28 07:08:49;;;;;;;2.90;2.70;;;5.10;99.90;;;;;;5022600;28;20641;-68
2020/12/28 07:11:35;;;;;;;2.63;2.43;;;5.00;99.90;;;;;;5026515;28;21299;-68
2020/12/28 07:14:20;;;;;;;2.83;2.40;;;5.00;99.90;;;;;;5041901;28;20578;-68
2020/12/28 07:17:05;;;;;;;3.17;2.23;;;5.00;99.90;;;;;;5038249;28;20597;-68
2020/12/28 07:20:00;;;;;;;3.13;2.70;;;5.00;99.90;;;;;;5036560;28;21117;-68
2020/12/28 07:22:44;;;;;;;3.10;2.20;;;5.00;99.90;;;;;;5024348;28;20715;-68
2020/12/28 07:25:29;;;;;;;2.77;2.57;;;5.10;99.90;;;;;;5034581;28;20703;-68
2020/12/28 07:28:14;;;;;;;3.47;2.63;;;5.10;99.90;;;;;;5045566;28;20660;-69
2020/12/28 07:31:00;;;;;;;2.37;2.17;;;5.00;99.90;;;;;;5034084;28;21212;-68
2020/12/28 07:33:49;;;;;;;2.77;2.57;;;5.00;99.90;;;;;;5048153;28;20697;-68
2020/12/28 07:36:34;;;;;;;2.73;2.53;;;5.10;99.90;;;;;;5038738;28;20676;-69
2020/12/28 07:39:19;;;;;;;2.53;2.30;;;5.00;99.90;;;;;;5032647;28;20648;-69
2020/12/28 07:42:04;;;;;;;2.60;2.40;;;5.00;99.90;;;;;;5028531;28;20793;-69
2020/12/28 07:45:00;;;;;;;3.27;2.77;;;5.00;99.90;;;;;;5031666;28;20598;-69
2020/12/28 07:47:51;;;;;;;3.80;2.77;;;4.90;99.90;;;;;;5043193;28;20676;-68
2020/12/28 07:50:37;;;;;;;2.50;2.30;;;4.90;99.90;;;;;;5022804;28;20646;-69
2020/12/28 07:53:31;;;;;;;2.80;2.50;;;4.90;99.90;;;;;;5015162;28;20597;-69
2020/12/28 07:56:44;;;;;;;2.60;2.40;;;5.00;99.90;;;;;;5043826;28;20620;-69
2020/12/28 07:59:47;;;;;;;3.13;2.30;;;5.00;99.90;;;;;;5027453;28;20661;-69
2020/12/28 08:03:10;;;;;;;2.50;2.30;;;5.00;99.90;;;;;;5029275;28;20708;-69
2020/12/28 08:05:59;;;;;;;3.40;3.10;;;5.00;99.90;;;;;;5028478;28;20642;-69
2020/12/28 08:08:44;;;;;;;3.00;2.80;;;5.00;99.90;;;;;;5039017;28;20881;-72
2020/12/28 08:11:32;;;;;;;3.00;2.70;;;5.00;99.90;;;;;;5020858;28;20634;-70
2020/12/28 08:14:17;;;;;;;2.93;2.67;;;5.00;99.90;;;;;;5031360;28;20578;-70
2020/12/28 08:17:09;;;;;;;3.50;2.70;;;5.10;99.90;;;;;;5030706;28;20616;-70
2020/12/28 08:20:08;;;;;;;3.60;3.10;;;5.00;99.90;;;;;;5024230;28;20676;-70
2020/12/28 08:22:53;;;;;;;4.30;3.00;;;5.00;99.90;;;;;;5017000;28;20808;-71
2020/12/28 08:25:41;;;;;;;3.40;2.97;;;5.00;99.90;;;;;;5022020;28;21902;-70
2020/12/28 08:28:26;;;;;;;3.20;2.90;;;5.10;99.90;;;;;;5020024;28;20916;-70
2020/12/28 08:31:10;;;;;;;3.13;2.83;;;5.10;99.90;;;;;;5019081;28;20807;-70
2020/12/28 08:34:27;;;;;;;3.17;2.90;;;5.20;99.90;;;;;;5017530;28;20587;-69
2020/12/28 08:37:12;;;;;;;3.40;3.10;;;5.20;99.90;;;;;;5029728;28;20589;-70
2020/12/28 08:39:57;;;;;;;3.40;3.10;;;5.10;99.90;;;;;;5016619;28;20719;-71
2020/12/28 08:42:42;;;;;;;4.13;3.40;;;5.10;99.90;;;;;;5020935;28;20826;-71
2020/12/28 08:45:27;;;;;;;3.30;3.00;;;5.10;99.90;;;;;;5040970;28;20794;-70
2020/12/28 08:48:12;;;;;;;3.90;3.50;;;5.10;99.90;;;;;;5036368;28;20610;-72
2020/12/28 08:50:56;;;;;;;3.60;3.10;;;5.20;99.90;;;;;;5026090;28;21543;-71
2020/12/28 08:53:46;;;;;;;3.67;3.30;;;5.20;99.90;;;;;;5030394;28;20593;-71
2020/12/28 08:56:37;;;;;;;4.80;3.43;;;5.10;99.90;;;;;;5045765;28;20644;-70
2020/12/28 08:59:21;;;;;;;3.83;3.50;;;5.10;99.90;;;;;;5023791;28;21090;-70
2020/12/28 09:02:13;;;;;;;4.10;3.07;;;5.10;99.90;;;;;;5025035;28;20629;-70
2020/12/28 09:04:58;;;;;;;10.70;3.63;;;5.00;99.90;;;;;;5020271;28;20647;-69
2020/12/28 09:07:43;;;;;;;3.43;3.13;;;5.10;99.90;;;;;;5025745;28;20627;-69
2020/12/28 09:10:27;;;;;;;3.70;3.20;;;5.10;99.90;;;;;;5022706;28;20786;-70
2020/12/28 09:13:11;;;;;;;3.70;3.30;;;5.00;99.90;;;;;;5035467;28;20586;-70
2020/12/28 09:15:56;;;;;;;5.73;3.43;;;4.90;99.90;;;;;;5020421;28;20645;-69
2020/12/28 09:18:40;;;;;;;3.70;3.27;;;4.90;99.90;;;;;;5023981;28;20622;-69
2020/12/28 09:21:25;;;;;;;4.57;3.63;;;4.80;99.90;;;;;;5018554;28;20688;-69
2020/12/28 09:24:09;;;;;;;3.77;3.47;;;4.70;99.90;;;;;;5021353;28;20693;-69
2020/12/28 09:26:58;;;;;;;4.40;4.00;;;4.70;99.90;;;;;;5022727;28;20640;-70
2020/12/28 09:29:42;;;;;;;4.20;3.70;;;4.70;99.90;;;;;;5024212;28;20673;-69
2020/12/28 09:32:27;;;;;;;4.70;4.17;;;4.80;99.90;;;;;;5015754;28;20582;-71
2020/12/28 09:35:11;;;;;;;3.90;3.50;;;4.70;99.90;;;;;;5015263;28;20699;-70
2020/12/28 09:37:56;;;;;;;4.87;3.73;;;4.80;99.90;;;;;;5019292;28;20583;-71
2020/12/28 09:40:43;;;;;;;4.03;3.63;;;4.80;99.90;;;;;;5013901;28;21468;-71
2020/12/28 09:43:27;;;;;;;4.17;3.77;;;4.80;99.90;;;;;;5012977;28;20696;-70
2020/12/28 09:46:17;;;;;;;4.40;3.43;;;4.90;99.90;;;;;;5023137;28;21271;-70
2020/12/28 09:49:02;;;;;;;4.23;3.70;;;4.80;99.90;;;;;;5026382;28;20657;-70
2020/12/28 09:51:47;;;;;;;4.70;3.97;;;4.90;99.90;;;;;;5027047;28;20984;-70
2020/12/28 09:54:34;;;;;;;5.00;4.33;;;4.90;99.90;;;;;;5018974;28;20627;-70
2020/12/28 09:57:19;;;;;;;4.70;4.20;;;4.90;99.90;;;;;;5027684;28;20593;-70
2020/12/28 10:00:04;;;;;;;4.27;3.87;;;4.90;99.90;;;;;;5026525;28;20680;-70
2020/12/28 10:02:49;;;;;;;5.27;4.33;;;4.90;99.90;;;;;;5030236;28;20602;-70
2020/12/28 10:05:34;;;;;;;4.47;4.00;;;5.00;99.90;;;;;;5023397;28;20781;-70
2020/12/28 10:08:21;;;;;;;5.07;4.53;;;5.00;99.90;;;;;;5026820;28;20731;-70
2020/12/28 10:11:05;;;;;;;4.37;3.97;;;5.00;99.90;;;;;;5031866;28;20787;-70
2020/12/28 10:13:50;;;;;;;4.47;4.07;;;5.10;99.90;;;;;;5025927;28;20586;-70
2020/12/28 10:16:34;;;;;;;4.60;3.97;;;5.10;99.90;;;;;;5026984;28;20669;-70
2020/12/28 10:19:19;;;;;;;4.47;4.07;;;5.10;99.90;;;;;;5020960;28;21300;-70
2020/12/28 10:22:03;;;;;;;5.00;4.47;;;5.10;99.90;;;;;;5033471;28;21143;-70
2020/12/28 10:24:48;;;;;;;4.00;3.60;;;5.20;99.90;;;;;;5025669;28;20644;-70
2020/12/28 10:27:34;;;;;;;5.17;4.27;;;5.20;99.90;;;;;;5025775;28;20632;-70
2020/12/28 10:30:19;;;;;;;5.40;3.80;;;5.10;99.90;;;;;;5031594;28;20641;-69
2020/12/28 10:33:04;;;;;;;5.10;4.50;;;5.20;99.90;;;;;;5026655;28;20694;-70
2020/12/28 10:35:48;;;;;;;4.53;4.13;;;5.20;99.90;;;;;;5021304;28;20633;-70
2020/12/28 10:38:33;;;;;;;5.00;4.60;;;5.30;99.90;;;;;;5018073;28;20585;-70
2020/12/28 10:41:28;;;;;;;4.57;4.07;;;5.40;99.90;;;;;;5023996;28;20586;-70
2020/12/28 10:44:12;;;;;;;4.77;4.07;;;5.60;99.90;;;;;;5030862;28;20630;-70
2020/12/28 10:46:57;;;;;;;5.70;4.57;;;5.80;99.90;;;;;;5041080;28;20614;-70
2020/12/28 10:49:41;;;;;;;4.30;3.90;;;5.90;99.90;;;;;;5033087;28;20871;-70
2020/12/28 10:52:26;;;;;;;5.73;4.23;;;5.90;99.90;;;;;;5032751;28;20645;-70
2020/12/28 10:55:10;;;;;;;4.93;4.40;;;5.90;99.90;;;;;;5025813;28;20650;-70
2020/12/28 10:57:55;;;;;;;5.17;4.67;;;5.90;99.90;;;;;;5034959;28;21215;-70
2020/12/28 11:00:40;;;;;;;5.87;4.83;;;6.00;99.90;;;;;;5031049;28;20747;-70
2020/12/28 11:03:25;;;;;;;5.20;4.37;;;5.90;99.90;;;;;;5030974;28;20597;-70
2020/12/28 11:06:09;;;;;;;4.53;4.10;;;5.90;99.90;;;;;;5030765;28;20661;-70
2020/12/28 11:08:54;;;;;;;4.70;4.20;;;5.90;99.90;;;;;;5026508;28;20977;-70
2020/12/28 11:11:38;;;;;;;5.67;4.33;;;6.00;99.90;;;;;;5030736;28;20948;-70
2020/12/28 11:14:23;;;;;;;5.60;4.93;;;6.00;99.90;;;;;;5036370;28;20645;-70
2020/12/28 11:17:08;;;;;;;5.43;4.63;;;5.90;99.90;;;;;;5026405;28;20601;-70
2020/12/28 11:19:52;;;;;;;5.60;3.87;;;6.00;99.90;;;;;;5031457;28;21058;-70
2020/12/28 11:22:36;;;;;;;5.13;4.63;;;6.00;99.90;;;;;;5019371;28;20991;-70
2020/12/28 11:25:21;;;;;;;6.70;4.60;;;5.90;99.90;;;;;;5034561;28;20646;-70
2020/12/28 11:28:05;;;;;;;4.60;4.13;;;5.90;99.90;;;;;;5021498;28;21208;-70
2020/12/28 11:30:49;;;;;;;6.00;5.10;;;5.80;99.90;;;;;;5033733;28;21103;-70
2020/12/28 11:33:34;;;;;;;5.30;4.80;;;5.80;99.90;;;;;;5026399;28;20692;-71
2020/12/28 11:36:19;;;;;;;5.53;5.03;;;5.80;99.90;;;;;;5023125;28;20645;-70
2020/12/28 11:39:03;;;;;;;4.87;4.47;;;5.80;99.90;;;;;;5026799;28;20686;-70
2020/12/28 11:41:48;;;;;;;5.83;4.40;;;5.80;99.90;;;;;;5035902;28;20633;-70
2020/12/28 11:44:32;;;;;;;5.23;4.73;;;5.80;99.90;;;;;;5021998;28;20650;-70
2020/12/28 11:47:17;;;;;;;4.50;3.93;;;5.80;99.90;;;;;;5045972;28;20698;-70
2020/12/28 11:50:04;;;;;;;5.00;4.40;;;5.80;99.90;;;;;;5046911;28;20648;-70
2020/12/28 11:52:48;;;;;;;4.80;4.30;;;5.80;99.90;;;;;;5020592;28;20629;-70
2020/12/28 11:56:02;;;;;;;6.90;5.00;;;5.80;99.90;;;;;;5030433;28;20629;-70
2020/12/28 11:58:39;;;;;;;6.80;4.80;;;5.80;99.90;;;;;;5036774;28;20629;-70
2020/12/28 12:01:24;;;;;;;5.97;4.93;;;5.80;99.90;;;;;;5028781;28;20636;-70
2020/12/28 12:04:08;;;;;;;4.87;4.30;;;5.80;99.90;;;;;;5023022;28;21010;-70
2020/12/28 12:06:53;;;;;;;5.00;4.50;;;5.90;99.90;;;;;;5031791;28;20648;-70
2020/12/28 12:09:37;;;;;;;5.13;4.60;;;6.00;99.90;;;;;;5029079;28;20673;-70
2020/12/28 12:12:21;;;;;;;5.37;4.90;;;6.00;99.90;;;;;;5023624;28;21185;-70
2020/12/28 12:15:06;;;;;;;5.80;4.00;;;6.00;99.90;;;;;;5029462;28;20660;-70
2020/12/28 12:17:50;;;;;;;7.93;5.47;;;6.00;99.90;;;;;;5034773;28;20657;-70
2020/12/28 12:20:35;;;;;;;5.37;4.87;;;6.00;99.90;;;;;;5032624;28;20660;-70
2020/12/28 12:23:20;;;;;;;5.30;4.80;;;6.00;99.90;;;;;;5022133;28;21222;-69
2020/12/28 12:26:04;;;;;;;5.00;4.50;;;6.00;99.90;;;;;;5028228;28;20805;-70
2020/12/28 12:28:50;;;;;;;5.30;4.60;;;6.00;99.90;;;;;;5030814;28;20719;-69
2020/12/28 12:31:35;;;;;;;5.27;4.77;;;6.10;99.90;;;;;;5027492;28;20671;-70
2020/12/28 12:34:20;;;;;;;5.13;4.63;;;6.10;99.90;;;;;;5026506;28;20972;-70
2020/12/28 12:37:04;;;;;;;5.60;5.07;;;6.10;99.90;;;;;;5023206;28;21141;-70
2020/12/28 12:39:49;;;;;;;4.67;4.27;;;6.10;99.90;;;;;;5038191;28;20650;-70
2020/12/28 12:42:33;;;;;;;6.03;5.00;;;6.10;99.90;;;;;;5034155;28;20649;-70
2020/12/28 12:45:17;;;;;;;6.70;4.70;;;6.20;99.90;;;;;;5024997;28;21199;-70
2020/12/28 12:48:02;;;;;;;5.17;4.67;;;6.10;99.90;;;;;;5031852;28;20625;-70
2020/12/28 12:50:48;;;;;;;5.40;4.67;;;6.20;99.90;;;;;;5030487;28;20641;-70
2020/12/28 12:53:33;;;;;;;5.17;4.67;;;6.20;99.90;;;;;;5024914;28;20666;-70
2020/12/28 12:56:21;;;;;;;5.43;4.90;;;6.20;99.90;;;;;;5024350;28;20666;-71
2020/12/28 12:59:06;;;;;;;6.50;5.10;;;6.20;99.90;;;;;;5024597;28;20668;-70
2020/12/28 13:01:50;;;;;;;5.90;4.60;;;6.20;99.90;;;;;;5035116;28;20660;-70
2020/12/28 13:04:34;;;;;;;4.93;4.43;;;6.20;99.90;;;;;;5021273;28;20727;-70
2020/12/28 13:07:22;;;;;;;5.33;4.83;;;6.20;99.90;;;;;;5016601;28;20819;-70
2020/12/28 13:10:09;;;;;;;6.43;4.73;;;6.20;99.90;;;;;;5038264;28;20677;-70
2020/12/28 13:12:53;;;;;;;5.90;4.90;;;6.30;99.90;;;;;;5029807;28;20709;-70
2020/12/28 13:15:38;;;;;;;4.50;4.10;;;6.30;99.90;;;;;;5025383;28;20720;-71
2020/12/28 13:18:22;;;;;;;7.90;4.60;;;6.40;99.90;;;;;;5033014;28;20569;-70
2020/12/28 13:21:07;;;;;;;4.90;4.40;;;6.40;99.90;;;;;;5031071;28;20578;-70
2020/12/28 13:23:51;;;;;;;5.53;4.40;;;6.40;99.90;;;;;;5031444;28;20597;-70
2020/12/28 13:26:37;;;;;;;4.40;4.00;;;6.50;99.90;;;;;;5043294;28;20675;-71
2020/12/28 13:29:22;;;;;;;4.43;4.03;;;6.70;99.90;;;;;;5038738;28;21176;-70
2020/12/28 13:32:07;;;;;;;4.40;4.00;;;6.80;99.90;;;;;;5022152;28;20598;-70
2020/12/28 13:34:51;;;;;;;4.63;4.23;;;6.90;99.90;;;;;;5023945;28;20638;-70
2020/12/28 13:37:36;;;;;;;4.27;3.80;;;6.90;99.90;;;;;;5027997;28;20589;-71
2020/12/28 13:40:20;;;;;;;4.50;4.10;;;7.00;99.90;;;;;;5021311;28;20664;-70
2020/12/28 13:43:04;;;;;;;5.30;3.90;;;7.00;99.90;;;;;;5026927;28;20649;-71
2020/12/28 13:45:49;;;;;;;4.37;3.80;;;7.10;99.90;;;;;;5020307;28;20634;-70
2020/12/28 13:48:33;;;;;;;3.80;3.40;;;7.10;99.90;;;;;;5025634;28;20718;-70
2020/12/28 13:51:22;;;;;;;3.50;3.20;;;7.10;99.90;;;;;;5028485;28;20590;-70
2020/12/28 13:54:07;;;;;;;3.87;3.47;;;7.10;99.90;;;;;;5024821;28;20787;-70
2020/12/28 13:56:56;;;;;;;4.47;3.93;;;7.10;99.90;;;;;;5031651;28;20707;-70
2020/12/28 13:59:40;;;;;;;3.80;3.50;;;7.10;99.90;;;;;;5025740;28;21049;-70
2020/12/28 14:02:25;;;;;;;4.03;3.70;;;7.10;99.90;;;;;;5030078;28;20585;-70
2020/12/28 14:05:09;;;;;;;4.53;4.13;;;7.00;99.90;;;;;;5015808;28;20657;-70
2020/12/28 14:07:56;;;;;;;3.13;2.83;;;7.00;99.90;;;;;;5020771;28;20626;-72
2020/12/28 14:10:40;;;;;;;3.87;3.30;;;6.90;99.90;;;;;;5034790;28;20720;-72
2020/12/28 14:13:27;;;;;;;3.80;3.07;;;7.00;99.90;;;;;;5028048;28;20594;-70
2020/12/28 14:16:12;;;;;;;3.90;3.60;;;7.00;99.90;;;;;;5012907;28;21275;-70
2020/12/28 14:18:58;;;;;;;4.83;3.90;;;7.00;99.90;;;;;;5022121;28;21144;-70
2020/12/28 14:21:43;;;;;;;4.00;3.60;;;6.90;99.90;;;;;;5026001;28;20927;-70
2020/12/28 14:24:27;;;;;;;4.37;3.97;;;7.00;99.90;;;;;;5023981;28;20652;-70
2020/12/28 14:27:12;;;;;;;4.17;3.60;;;7.00;99.90;;;;;;5025277;28;20757;-70
2020/12/28 14:29:57;;;;;;;3.90;3.50;;;6.90;99.90;;;;;;5024744;28;20652;-70
2020/12/28 14:32:41;;;;;;;4.53;4.13;;;7.00;99.90;;;;;;5021019;28;20594;-70
2020/12/28 14:35:26;;;;;;;4.10;3.70;;;7.00;99.90;;;;;;5015092;28;20745;-73